sensor_id;sensor_type;location;lat;lon;timestamp;P1;durP1;ratioP1;P2;durP2;ratioP2
14778;SDS011;7481;53.750;10.570;2022-12-07T00:02:22;20.70;;;11.80;;
14778;SDS011;7481;53.750;10.570;2022-12-07T00:05:10;20.70;;;11.80;;
14778;SDS011;7481;53.750;10.570;2022-12-07T00:07:57;22.27;;;12.77;;
14778;SDS011;7481;53.750;10.570;2022-12-07T00:10:44;20.50;;;12.50;;
14778;SDS011;7481;53.750;10.570;2022-12-07T00:13:32;22.67;;;12.87;;
14778;SDS011;7481;53.750;10.570;2022-12-07T00:16:22;23.10;;;13.73;;
14778;SDS011;7481;53.750;10.570;2022-12-07T00:19:10;23.50;;;13.20;;
14778;SDS011;7481;53.750;10.570;2022-12-07T00:21:58;21.77;;;12.57;;
14778;SDS011;7481;53.750;10.570;2022-12-07T00:24:45;23.13;;;13.20;;
14778;SDS011;7481;53.750;10.570;2022-12-07T00:27:33;24.17;;;13.73;;
14778;SDS011;7481;53.750;10.570;2022-12-07T00:30:20;20.33;;;12.50;;
14778;SDS011;7481;53.750;10.570;2022-12-07T00:33:08;23.93;;;13.57;;
14778;SDS011;7481;53.750;10.570;2022-12-07T00:35:56;18.33;;;11.73;;
14778;SDS011;7481;53.750;10.570;2022-12-07T00:38:44;20.93;;;11.43;;
14778;SDS011;7481;53.750;10.570;2022-12-07T00:41:31;20.90;;;12.47;;
14778;SDS011;7481;53.750;10.570;2022-12-07T00:44:19;19.83;;;12.17;;
14778;SDS011;7481;53.750;10.570;2022-12-07T00:47:06;19.30;;;12.23;;
14778;SDS011;7481;53.750;10.570;2022-12-07T00:49:53;24.70;;;13.80;;
14778;SDS011;7481;53.750;10.570;2022-12-07T00:52:41;18.53;;;12.23;;
14778;SDS011;7481;53.750;10.570;2022-12-07T00:55:32;20.03;;;13.00;;
14778;SDS011;7481;53.750;10.570;2022-12-07T00:58:23;24.47;;;13.23;;
14778;SDS011;7481;53.750;10.570;2022-12-07T01:01:11;23.43;;;14.10;;
14778;SDS011;7481;53.750;10.570;2022-12-07T01:03:58;22.30;;;14.13;;
14778;SDS011;7481;53.750;10.570;2022-12-07T01:06:47;23.87;;;14.23;;
14778;SDS011;7481;53.750;10.570;2022-12-07T01:09:35;23.13;;;13.73;;
14778;SDS011;7481;53.750;10.570;2022-12-07T01:12:22;25.00;;;14.73;;
14778;SDS011;7481;53.750;10.570;2022-12-07T01:15:09;20.80;;;13.03;;
14778;SDS011;7481;53.750;10.570;2022-12-07T01:17:57;24.03;;;14.27;;
14778;SDS011;7481;53.750;10.570;2022-12-07T01:20:44;22.80;;;13.63;;
14778;SDS011;7481;53.750;10.570;2022-12-07T01:23:33;24.30;;;13.73;;
14778;SDS011;7481;53.750;10.570;2022-12-07T01:26:22;21.83;;;13.77;;
14778;SDS011;7481;53.750;10.570;2022-12-07T01:29:09;23.13;;;13.83;;
14778;SDS011;7481;53.750;10.570;2022-12-07T01:31:56;25.40;;;13.37;;
14778;SDS011;7481;53.750;10.570;2022-12-07T01:34:44;26.13;;;14.03;;
14778;SDS011;7481;53.750;10.570;2022-12-07T01:37:35;23.20;;;13.63;;
14778;SDS011;7481;53.750;10.570;2022-12-07T01:40:22;22.23;;;13.53;;
14778;SDS011;7481;53.750;10.570;2022-12-07T01:43:16;24.17;;;14.17;;
14778;SDS011;7481;53.750;10.570;2022-12-07T01:46:05;24.83;;;14.40;;
14778;SDS011;7481;53.750;10.570;2022-12-07T01:48:52;24.47;;;14.37;;
14778;SDS011;7481;53.750;10.570;2022-12-07T01:51:40;23.57;;;14.43;;
14778;SDS011;7481;53.750;10.570;2022-12-07T01:54:29;22.53;;;13.77;;
14778;SDS011;7481;53.750;10.570;2022-12-07T01:57:17;26.07;;;14.20;;
14778;SDS011;7481;53.750;10.570;2022-12-07T02:00:06;23.57;;;14.43;;
14778;SDS011;7481;53.750;10.570;2022-12-07T02:05:57;22.07;;;13.07;;
14778;SDS011;7481;53.750;10.570;2022-12-07T02:08:45;21.33;;;13.43;;
14778;SDS011;7481;53.750;10.570;2022-12-07T02:11:34;21.47;;;13.17;;
14778;SDS011;7481;53.750;10.570;2022-12-07T02:14:21;22.20;;;12.97;;
14778;SDS011;7481;53.750;10.570;2022-12-07T02:17:14;21.90;;;12.77;;
14778;SDS011;7481;53.750;10.570;2022-12-07T02:20:17;20.20;;;12.30;;
14778;SDS011;7481;53.750;10.570;2022-12-07T02:29:14;19.13;;;11.90;;
14778;SDS011;7481;53.750;10.570;2022-12-07T02:35:05;18.73;;;11.43;;
14778;SDS011;7481;53.750;10.570;2022-12-07T02:37:58;16.07;;;9.23;;
14778;SDS011;7481;53.750;10.570;2022-12-07T02:40:51;14.97;;;10.20;;
14778;SDS011;7481;53.750;10.570;2022-12-07T02:43:41;12.13;;;8.40;;
14778;SDS011;7481;53.750;10.570;2022-12-07T02:46:31;12.83;;;8.50;;
14778;SDS011;7481;53.750;10.570;2022-12-07T02:49:21;13.53;;;8.00;;
14778;SDS011;7481;53.750;10.570;2022-12-07T02:52:09;11.70;;;7.37;;
14778;SDS011;7481;53.750;10.570;2022-12-07T02:54:58;12.53;;;6.80;;
14778;SDS011;7481;53.750;10.570;2022-12-07T03:00:44;10.10;;;6.27;;
14778;SDS011;7481;53.750;10.570;2022-12-07T03:03:33;13.60;;;7.33;;
14778;SDS011;7481;53.750;10.570;2022-12-07T03:06:23;11.13;;;7.30;;
14778;SDS011;7481;53.750;10.570;2022-12-07T03:09:20;13.00;;;7.60;;
14778;SDS011;7481;53.750;10.570;2022-12-07T03:12:10;12.70;;;7.97;;
14778;SDS011;7481;53.750;10.570;2022-12-07T03:15:03;13.47;;;7.67;;
14778;SDS011;7481;53.750;10.570;2022-12-07T03:17:52;12.60;;;7.87;;
14778;SDS011;7481;53.750;10.570;2022-12-07T03:20:41;14.53;;;8.23;;
14778;SDS011;7481;53.750;10.570;2022-12-07T03:23:31;12.27;;;7.63;;
14778;SDS011;7481;53.750;10.570;2022-12-07T03:26:21;12.47;;;8.03;;
14778;SDS011;7481;53.750;10.570;2022-12-07T03:29:34;12.93;;;8.10;;
14778;SDS011;7481;53.750;10.570;2022-12-07T03:32:23;13.37;;;7.67;;
14778;SDS011;7481;53.750;10.570;2022-12-07T03:35:23;13.77;;;7.57;;
14778;SDS011;7481;53.750;10.570;2022-12-07T03:38:23;15.10;;;7.93;;
14778;SDS011;7481;53.750;10.570;2022-12-07T03:41:14;14.10;;;7.93;;
14778;SDS011;7481;53.750;10.570;2022-12-07T03:44:03;13.00;;;6.87;;
14778;SDS011;7481;53.750;10.570;2022-12-07T03:50:22;12.20;;;6.87;;
14778;SDS011;7481;53.750;10.570;2022-12-07T03:53:17;12.90;;;6.80;;
14778;SDS011;7481;53.750;10.570;2022-12-07T03:56:06;12.03;;;6.73;;
14778;SDS011;7481;53.750;10.570;2022-12-07T03:58:54;12.00;;;6.13;;
14778;SDS011;7481;53.750;10.570;2022-12-07T04:01:44;9.97;;;6.47;;
14778;SDS011;7481;53.750;10.570;2022-12-07T04:04:32;10.37;;;6.20;;
14778;SDS011;7481;53.750;10.570;2022-12-07T04:07:20;11.17;;;6.50;;
14778;SDS011;7481;53.750;10.570;2022-12-07T04:10:08;9.30;;;6.47;;
14778;SDS011;7481;53.750;10.570;2022-12-07T04:12:57;8.20;;;5.63;;
14778;SDS011;7481;53.750;10.570;2022-12-07T04:15:45;7.43;;;5.27;;
14778;SDS011;7481;53.750;10.570;2022-12-07T04:18:32;7.27;;;4.40;;
14778;SDS011;7481;53.750;10.570;2022-12-07T04:21:19;7.87;;;5.50;;
14778;SDS011;7481;53.750;10.570;2022-12-07T04:24:07;7.57;;;4.93;;
14778;SDS011;7481;53.750;10.570;2022-12-07T04:26:54;5.77;;;4.70;;
14778;SDS011;7481;53.750;10.570;2022-12-07T04:29:42;8.63;;;4.67;;
14778;SDS011;7481;53.750;10.570;2022-12-07T04:32:32;7.30;;;4.80;;
14778;SDS011;7481;53.750;10.570;2022-12-07T04:35:20;6.57;;;4.10;;
14778;SDS011;7481;53.750;10.570;2022-12-07T04:38:08;5.87;;;3.90;;
14778;SDS011;7481;53.750;10.570;2022-12-07T04:40:55;6.20;;;4.10;;
14778;SDS011;7481;53.750;10.570;2022-12-07T04:43:42;7.60;;;4.43;;
14778;SDS011;7481;53.750;10.570;2022-12-07T04:46:30;5.93;;;4.17;;
14778;SDS011;7481;53.750;10.570;2022-12-07T04:49:19;5.10;;;4.23;;
14778;SDS011;7481;53.750;10.570;2022-12-07T04:52:06;7.73;;;4.43;;
14778;SDS011;7481;53.750;10.570;2022-12-07T04:54:53;7.22;;;4.82;;
14778;SDS011;7481;53.750;10.570;2022-12-07T04:57:41;5.73;;;4.23;;
14778;SDS011;7481;53.750;10.570;2022-12-07T05:00:28;8.40;;;4.93;;
14778;SDS011;7481;53.750;10.570;2022-12-07T05:03:16;7.17;;;4.80;;
14778;SDS011;7481;53.750;10.570;2022-12-07T05:06:04;7.10;;;4.67;;
14778;SDS011;7481;53.750;10.570;2022-12-07T05:08:58;6.73;;;4.67;;
14778;SDS011;7481;53.750;10.570;2022-12-07T05:11:46;7.93;;;4.60;;
14778;SDS011;7481;53.750;10.570;2022-12-07T05:14:33;7.80;;;4.63;;
14778;SDS011;7481;53.750;10.570;2022-12-07T05:17:20;6.77;;;4.93;;
14778;SDS011;7481;53.750;10.570;2022-12-07T05:20:08;6.53;;;5.63;;
14778;SDS011;7481;53.750;10.570;2022-12-07T05:22:55;7.90;;;5.20;;
14778;SDS011;7481;53.750;10.570;2022-12-07T05:25:44;7.67;;;5.80;;
14778;SDS011;7481;53.750;10.570;2022-12-07T05:28:32;7.47;;;5.67;;
14778;SDS011;7481;53.750;10.570;2022-12-07T05:31:19;7.37;;;4.97;;
14778;SDS011;7481;53.750;10.570;2022-12-07T05:34:07;8.67;;;5.33;;
14778;SDS011;7481;53.750;10.570;2022-12-07T05:36:54;8.67;;;5.50;;
14778;SDS011;7481;53.750;10.570;2022-12-07T05:39:42;9.70;;;5.43;;
14778;SDS011;7481;53.750;10.570;2022-12-07T05:42:30;10.73;;;5.70;;
14778;SDS011;7481;53.750;10.570;2022-12-07T05:45:17;7.07;;;4.83;;
14778;SDS011;7481;53.750;10.570;2022-12-07T05:48:05;7.50;;;4.97;;
14778;SDS011;7481;53.750;10.570;2022-12-07T05:50:52;6.70;;;4.77;;
14778;SDS011;7481;53.750;10.570;2022-12-07T05:53:40;7.57;;;4.80;;
14778;SDS011;7481;53.750;10.570;2022-12-07T05:56:27;5.90;;;4.70;;
14778;SDS011;7481;53.750;10.570;2022-12-07T05:59:15;5.97;;;4.53;;
14778;SDS011;7481;53.750;10.570;2022-12-07T06:02:10;4.67;;;3.73;;
14778;SDS011;7481;53.750;10.570;2022-12-07T06:04:58;6.07;;;4.40;;
14778;SDS011;7481;53.750;10.570;2022-12-07T06:07:45;7.43;;;5.27;;
14778;SDS011;7481;53.750;10.570;2022-12-07T06:10:32;9.43;;;6.53;;
14778;SDS011;7481;53.750;10.570;2022-12-07T06:13:20;8.23;;;5.23;;
14778;SDS011;7481;53.750;10.570;2022-12-07T06:16:07;8.30;;;5.03;;
14778;SDS011;7481;53.750;10.570;2022-12-07T06:18:55;8.97;;;5.43;;
14778;SDS011;7481;53.750;10.570;2022-12-07T06:21:42;7.33;;;5.10;;
14778;SDS011;7481;53.750;10.570;2022-12-07T06:24:30;10.90;;;5.17;;
14778;SDS011;7481;53.750;10.570;2022-12-07T06:27:18;7.50;;;5.37;;
14778;SDS011;7481;53.750;10.570;2022-12-07T06:30:05;9.77;;;6.20;;
14778;SDS011;7481;53.750;10.570;2022-12-07T06:32:54;8.30;;;5.57;;
14778;SDS011;7481;53.750;10.570;2022-12-07T06:35:42;10.40;;;5.97;;
14778;SDS011;7481;53.750;10.570;2022-12-07T06:38:29;7.63;;;5.07;;
14778;SDS011;7481;53.750;10.570;2022-12-07T06:41:16;12.80;;;5.73;;
14778;SDS011;7481;53.750;10.570;2022-12-07T06:44:04;7.67;;;4.93;;
14778;SDS011;7481;53.750;10.570;2022-12-07T06:46:52;8.43;;;5.30;;
14778;SDS011;7481;53.750;10.570;2022-12-07T06:50:00;10.80;;;5.83;;
14778;SDS011;7481;53.750;10.570;2022-12-07T06:52:48;10.83;;;5.60;;
14778;SDS011;7481;53.750;10.570;2022-12-07T06:55:35;7.53;;;5.47;;
14778;SDS011;7481;53.750;10.570;2022-12-07T06:58:23;9.30;;;5.07;;
14778;SDS011;7481;53.750;10.570;2022-12-07T07:01:14;9.07;;;5.23;;
14778;SDS011;7481;53.750;10.570;2022-12-07T07:04:02;8.93;;;5.20;;
14778;SDS011;7481;53.750;10.570;2022-12-07T07:06:49;8.47;;;5.10;;
14778;SDS011;7481;53.750;10.570;2022-12-07T07:09:45;9.20;;;5.50;;
14778;SDS011;7481;53.750;10.570;2022-12-07T07:12:32;9.17;;;4.60;;
14778;SDS011;7481;53.750;10.570;2022-12-07T07:15:19;11.07;;;5.07;;
14778;SDS011;7481;53.750;10.570;2022-12-07T07:18:07;9.17;;;5.43;;
14778;SDS011;7481;53.750;10.570;2022-12-07T07:20:54;8.20;;;4.53;;
14778;SDS011;7481;53.750;10.570;2022-12-07T07:23:42;5.83;;;4.20;;
14778;SDS011;7481;53.750;10.570;2022-12-07T07:26:29;6.77;;;4.57;;
14778;SDS011;7481;53.750;10.570;2022-12-07T07:29:16;5.60;;;4.50;;
14778;SDS011;7481;53.750;10.570;2022-12-07T07:32:04;10.83;;;5.60;;
14778;SDS011;7481;53.750;10.570;2022-12-07T07:34:52;10.07;;;6.40;;
14778;SDS011;7481;53.750;10.570;2022-12-07T07:37:40;9.10;;;5.63;;
14778;SDS011;7481;53.750;10.570;2022-12-07T07:40:27;9.77;;;6.63;;
14778;SDS011;7481;53.750;10.570;2022-12-07T07:43:18;10.43;;;6.27;;
14778;SDS011;7481;53.750;10.570;2022-12-07T07:46:05;12.77;;;5.80;;
14778;SDS011;7481;53.750;10.570;2022-12-07T07:48:53;9.40;;;5.93;;
14778;SDS011;7481;53.750;10.570;2022-12-07T07:51:40;9.47;;;5.67;;
14778;SDS011;7481;53.750;10.570;2022-12-07T07:54:27;7.80;;;5.43;;
14778;SDS011;7481;53.750;10.570;2022-12-07T07:57:15;10.93;;;6.60;;
14778;SDS011;7481;53.750;10.570;2022-12-07T08:00:03;9.70;;;5.87;;
14778;SDS011;7481;53.750;10.570;2022-12-07T08:02:51;7.13;;;5.10;;
14778;SDS011;7481;53.750;10.570;2022-12-07T08:05:38;7.50;;;5.37;;
14778;SDS011;7481;53.750;10.570;2022-12-07T08:08:26;8.27;;;5.47;;
14778;SDS011;7481;53.750;10.570;2022-12-07T08:11:13;8.73;;;5.23;;
14778;SDS011;7481;53.750;10.570;2022-12-07T08:14:01;8.87;;;4.53;;
14778;SDS011;7481;53.750;10.570;2022-12-07T08:16:48;10.47;;;4.80;;
14778;SDS011;7481;53.750;10.570;2022-12-07T08:19:35;8.73;;;4.93;;
14778;SDS011;7481;53.750;10.570;2022-12-07T08:22:23;6.83;;;4.37;;
14778;SDS011;7481;53.750;10.570;2022-12-07T08:25:10;10.37;;;4.73;;
14778;SDS011;7481;53.750;10.570;2022-12-07T08:27:57;8.03;;;4.83;;
14778;SDS011;7481;53.750;10.570;2022-12-07T08:30:46;15.30;;;7.43;;
14778;SDS011;7481;53.750;10.570;2022-12-07T08:33:34;10.13;;;6.80;;
14778;SDS011;7481;53.750;10.570;2022-12-07T08:36:21;7.93;;;5.00;;
14778;SDS011;7481;53.750;10.570;2022-12-07T08:39:09;7.70;;;5.07;;
14778;SDS011;7481;53.750;10.570;2022-12-07T08:42:16;9.17;;;5.90;;
14778;SDS011;7481;53.750;10.570;2022-12-07T08:45:05;17.87;;;8.70;;
14778;SDS011;7481;53.750;10.570;2022-12-07T08:48:03;26.03;;;14.50;;
14778;SDS011;7481;53.750;10.570;2022-12-07T08:50:53;26.40;;;14.10;;
14778;SDS011;7481;53.750;10.570;2022-12-07T08:53:40;16.37;;;8.77;;
14778;SDS011;7481;53.750;10.570;2022-12-07T08:56:29;9.50;;;5.77;;
14778;SDS011;7481;53.750;10.570;2022-12-07T08:59:16;8.37;;;5.60;;
14778;SDS011;7481;53.750;10.570;2022-12-07T09:02:05;11.27;;;6.00;;
14778;SDS011;7481;53.750;10.570;2022-12-07T09:04:52;7.23;;;4.77;;
14778;SDS011;7481;53.750;10.570;2022-12-07T09:07:39;6.17;;;4.07;;
14778;SDS011;7481;53.750;10.570;2022-12-07T09:10:29;6.43;;;3.73;;
14778;SDS011;7481;53.750;10.570;2022-12-07T09:13:17;7.63;;;3.87;;
14778;SDS011;7481;53.750;10.570;2022-12-07T09:16:04;5.23;;;3.33;;
14778;SDS011;7481;53.750;10.570;2022-12-07T09:18:51;6.13;;;3.37;;
14778;SDS011;7481;53.750;10.570;2022-12-07T09:21:38;5.37;;;2.80;;
14778;SDS011;7481;53.750;10.570;2022-12-07T09:24:25;6.57;;;2.77;;
14778;SDS011;7481;53.750;10.570;2022-12-07T09:27:12;7.23;;;2.73;;
14778;SDS011;7481;53.750;10.570;2022-12-07T09:29:59;3.97;;;2.93;;
14778;SDS011;7481;53.750;10.570;2022-12-07T09:32:47;6.73;;;3.57;;
14778;SDS011;7481;53.750;10.570;2022-12-07T09:35:34;8.53;;;2.73;;
14778;SDS011;7481;53.750;10.570;2022-12-07T09:38:21;5.10;;;2.90;;
14778;SDS011;7481;53.750;10.570;2022-12-07T09:41:08;4.93;;;3.07;;
14778;SDS011;7481;53.750;10.570;2022-12-07T09:43:57;5.37;;;2.50;;
14778;SDS011;7481;53.750;10.570;2022-12-07T09:46:52;6.30;;;2.90;;
14778;SDS011;7481;53.750;10.570;2022-12-07T09:49:40;7.73;;;3.23;;
14778;SDS011;7481;53.750;10.570;2022-12-07T09:52:27;13.47;;;7.97;;
14778;SDS011;7481;53.750;10.570;2022-12-07T09:55:24;3.63;;;2.57;;
14778;SDS011;7481;53.750;10.570;2022-12-07T09:58:22;12.30;;;3.47;;
14778;SDS011;7481;53.750;10.570;2022-12-07T10:01:15;3.73;;;2.90;;
14778;SDS011;7481;53.750;10.570;2022-12-07T10:04:14;8.73;;;2.93;;
14778;SDS011;7481;53.750;10.570;2022-12-07T10:07:03;8.77;;;4.83;;
14778;SDS011;7481;53.750;10.570;2022-12-07T10:09:50;5.40;;;3.43;;
14778;SDS011;7481;53.750;10.570;2022-12-07T10:12:54;4.17;;;2.20;;
14778;SDS011;7481;53.750;10.570;2022-12-07T10:15:45;2.83;;;2.50;;
14778;SDS011;7481;53.750;10.570;2022-12-07T10:18:41;7.03;;;2.33;;
14778;SDS011;7481;53.750;10.570;2022-12-07T10:21:28;4.73;;;2.00;;
14778;SDS011;7481;53.750;10.570;2022-12-07T10:24:15;7.53;;;2.33;;
14778;SDS011;7481;53.750;10.570;2022-12-07T10:27:02;6.03;;;2.50;;
14778;SDS011;7481;53.750;10.570;2022-12-07T10:29:50;5.23;;;2.10;;
14778;SDS011;7481;53.750;10.570;2022-12-07T10:32:39;5.07;;;2.10;;
14778;SDS011;7481;53.750;10.570;2022-12-07T10:35:27;5.33;;;2.50;;
14778;SDS011;7481;53.750;10.570;2022-12-07T10:38:16;5.07;;;2.10;;
14778;SDS011;7481;53.750;10.570;2022-12-07T10:41:06;6.33;;;2.53;;
14778;SDS011;7481;53.750;10.570;2022-12-07T10:43:55;7.07;;;3.67;;
14778;SDS011;7481;53.750;10.570;2022-12-07T10:46:50;3.60;;;2.20;;
14778;SDS011;7481;53.750;10.570;2022-12-07T10:49:51;5.60;;;2.10;;
14778;SDS011;7481;53.750;10.570;2022-12-07T10:53:04;7.10;;;2.50;;
14778;SDS011;7481;53.750;10.570;2022-12-07T10:56:21;8.40;;;3.10;;
14778;SDS011;7481;53.750;10.570;2022-12-07T11:11:38;7.57;;;3.47;;
14778;SDS011;7481;53.750;10.570;2022-12-07T11:14:44;12.00;;;7.30;;
14778;SDS011;7481;53.750;10.570;2022-12-07T11:21:09;8.70;;;5.77;;
14778;SDS011;7481;53.750;10.570;2022-12-07T11:24:15;6.53;;;3.67;;
14778;SDS011;7481;53.750;10.570;2022-12-07T11:27:21;7.67;;;3.33;;
14778;SDS011;7481;53.750;10.570;2022-12-07T11:30:18;14.33;;;8.37;;
14778;SDS011;7481;53.750;10.570;2022-12-07T11:36:18;10.83;;;5.67;;
14778;SDS011;7481;53.750;10.570;2022-12-07T11:39:41;5.87;;;2.90;;
14778;SDS011;7481;53.750;10.570;2022-12-07T11:42:37;7.73;;;3.53;;
14778;SDS011;7481;53.750;10.570;2022-12-07T11:45:37;10.57;;;4.73;;
14778;SDS011;7481;53.750;10.570;2022-12-07T11:51:27;10.23;;;3.90;;
14778;SDS011;7481;53.750;10.570;2022-12-07T11:54:26;8.17;;;2.43;;
14778;SDS011;7481;53.750;10.570;2022-12-07T11:57:41;8.43;;;2.57;;
14778;SDS011;7481;53.750;10.570;2022-12-07T12:00:29;4.13;;;2.27;;
14778;SDS011;7481;53.750;10.570;2022-12-07T12:03:20;8.27;;;3.17;;
14778;SDS011;7481;53.750;10.570;2022-12-07T12:06:19;7.03;;;2.67;;
14778;SDS011;7481;53.750;10.570;2022-12-07T12:21:44;2.40;;;1.40;;
14778;SDS011;7481;53.750;10.570;2022-12-07T12:24:40;7.07;;;2.70;;
14778;SDS011;7481;53.750;10.570;2022-12-07T12:27:30;9.07;;;6.53;;
14778;SDS011;7481;53.750;10.570;2022-12-07T12:30:39;6.13;;;2.70;;
14778;SDS011;7481;53.750;10.570;2022-12-07T12:33:27;6.20;;;2.10;;
14778;SDS011;7481;53.750;10.570;2022-12-07T12:42:03;8.70;;;4.27;;
14778;SDS011;7481;53.750;10.570;2022-12-07T12:45:05;7.77;;;4.00;;
14778;SDS011;7481;53.750;10.570;2022-12-07T12:48:26;4.63;;;2.23;;
14778;SDS011;7481;53.750;10.570;2022-12-07T12:54:22;5.37;;;2.77;;
14778;SDS011;7481;53.750;10.570;2022-12-07T12:57:23;3.30;;;1.77;;
14778;SDS011;7481;53.750;10.570;2022-12-07T13:00:19;7.20;;;2.57;;
14778;SDS011;7481;53.750;10.570;2022-12-07T13:03:26;2.93;;;1.40;;
14778;SDS011;7481;53.750;10.570;2022-12-07T13:09:20;2.37;;;1.30;;
14778;SDS011;7481;53.750;10.570;2022-12-07T13:12:12;7.93;;;3.37;;
14778;SDS011;7481;53.750;10.570;2022-12-07T13:15:01;39.00;;;24.20;;
14778;SDS011;7481;53.750;10.570;2022-12-07T13:20:40;4.40;;;2.80;;
14778;SDS011;7481;53.750;10.570;2022-12-07T13:26:36;10.43;;;6.13;;
14778;SDS011;7481;53.750;10.570;2022-12-07T13:29:25;45.00;;;25.80;;
14778;SDS011;7481;53.750;10.570;2022-12-07T13:32:26;22.97;;;13.63;;
14778;SDS011;7481;53.750;10.570;2022-12-07T13:35:27;6.77;;;4.43;;
14778;SDS011;7481;53.750;10.570;2022-12-07T13:38:25;6.70;;;2.77;;
14778;SDS011;7481;53.750;10.570;2022-12-07T13:41:23;6.17;;;3.00;;
14778;SDS011;7481;53.750;10.570;2022-12-07T13:44:12;5.17;;;3.20;;
14778;SDS011;7481;53.750;10.570;2022-12-07T13:47:07;3.43;;;2.53;;
14778;SDS011;7481;53.750;10.570;2022-12-07T13:50:23;5.00;;;1.80;;
14778;SDS011;7481;53.750;10.570;2022-12-07T13:53:12;4.47;;;2.23;;
14778;SDS011;7481;53.750;10.570;2022-12-07T13:56:00;4.07;;;1.90;;
14778;SDS011;7481;53.750;10.570;2022-12-07T13:58:49;5.93;;;2.30;;
14778;SDS011;7481;53.750;10.570;2022-12-07T14:01:38;2.60;;;1.53;;
14778;SDS011;7481;53.750;10.570;2022-12-07T14:04:31;2.73;;;1.43;;
14778;SDS011;7481;53.750;10.570;2022-12-07T14:13:34;1.87;;;0.80;;
14778;SDS011;7481;53.750;10.570;2022-12-07T14:16:31;1.50;;;1.20;;
14778;SDS011;7481;53.750;10.570;2022-12-07T14:19:38;5.37;;;1.73;;
14778;SDS011;7481;53.750;10.570;2022-12-07T14:22:34;2.40;;;1.37;;
14778;SDS011;7481;53.750;10.570;2022-12-07T14:25:24;5.23;;;2.00;;
14778;SDS011;7481;53.750;10.570;2022-12-07T14:28:30;9.03;;;3.00;;
14778;SDS011;7481;53.750;10.570;2022-12-07T14:31:21;3.40;;;1.57;;
14778;SDS011;7481;53.750;10.570;2022-12-07T14:34:16;2.03;;;0.97;;
14778;SDS011;7481;53.750;10.570;2022-12-07T14:37:03;3.53;;;1.80;;
14778;SDS011;7481;53.750;10.570;2022-12-07T14:39:53;2.73;;;1.80;;
14778;SDS011;7481;53.750;10.570;2022-12-07T14:42:40;2.07;;;1.20;;
14778;SDS011;7481;53.750;10.570;2022-12-07T14:45:28;2.73;;;1.03;;
14778;SDS011;7481;53.750;10.570;2022-12-07T14:48:15;3.87;;;1.77;;
14778;SDS011;7481;53.750;10.570;2022-12-07T14:51:22;2.63;;;1.30;;
14778;SDS011;7481;53.750;10.570;2022-12-07T14:54:30;3.47;;;1.57;;
14778;SDS011;7481;53.750;10.570;2022-12-07T14:57:18;2.97;;;2.00;;
14778;SDS011;7481;53.750;10.570;2022-12-07T15:00:05;3.17;;;1.60;;
14778;SDS011;7481;53.750;10.570;2022-12-07T15:02:53;4.50;;;2.07;;
14778;SDS011;7481;53.750;10.570;2022-12-07T15:05:41;4.20;;;3.00;;
14778;SDS011;7481;53.750;10.570;2022-12-07T15:08:28;8.17;;;5.10;;
14778;SDS011;7481;53.750;10.570;2022-12-07T15:11:16;7.70;;;3.73;;
14778;SDS011;7481;53.750;10.570;2022-12-07T15:14:03;4.83;;;2.47;;
14778;SDS011;7481;53.750;10.570;2022-12-07T15:17:00;3.13;;;1.60;;
14778;SDS011;7481;53.750;10.570;2022-12-07T15:20:02;6.13;;;2.00;;
14778;SDS011;7481;53.750;10.570;2022-12-07T15:22:50;6.60;;;3.87;;
14778;SDS011;7481;53.750;10.570;2022-12-07T15:25:42;5.47;;;3.50;;
14778;SDS011;7481;53.750;10.570;2022-12-07T15:28:30;13.40;;;2.63;;
14778;SDS011;7481;53.750;10.570;2022-12-07T15:31:17;5.63;;;3.00;;
14778;SDS011;7481;53.750;10.570;2022-12-07T15:34:25;5.07;;;2.87;;
14778;SDS011;7481;53.750;10.570;2022-12-07T15:37:19;6.27;;;3.57;;
14778;SDS011;7481;53.750;10.570;2022-12-07T15:40:06;3.90;;;2.87;;
14778;SDS011;7481;53.750;10.570;2022-12-07T15:42:53;5.07;;;3.53;;
14778;SDS011;7481;53.750;10.570;2022-12-07T15:45:41;5.27;;;3.47;;
14778;SDS011;7481;53.750;10.570;2022-12-07T15:48:28;4.60;;;3.50;;
14778;SDS011;7481;53.750;10.570;2022-12-07T15:51:15;4.37;;;2.70;;
14778;SDS011;7481;53.750;10.570;2022-12-07T15:54:18;3.97;;;2.80;;
14778;SDS011;7481;53.750;10.570;2022-12-07T15:57:07;2.53;;;1.70;;
14778;SDS011;7481;53.750;10.570;2022-12-07T15:59:54;1.33;;;1.10;;
14778;SDS011;7481;53.750;10.570;2022-12-07T16:02:41;2.33;;;1.13;;
14778;SDS011;7481;53.750;10.570;2022-12-07T16:05:29;2.73;;;1.20;;
14778;SDS011;7481;53.750;10.570;2022-12-07T16:08:16;1.20;;;1.00;;
14778;SDS011;7481;53.750;10.570;2022-12-07T16:11:06;2.15;;;1.13;;
14778;SDS011;7481;53.750;10.570;2022-12-07T16:13:53;4.33;;;1.70;;
14778;SDS011;7481;53.750;10.570;2022-12-07T16:16:41;3.33;;;1.90;;
14778;SDS011;7481;53.750;10.570;2022-12-07T16:19:28;4.13;;;1.70;;
14778;SDS011;7481;53.750;10.570;2022-12-07T16:22:15;3.00;;;1.80;;
14778;SDS011;7481;53.750;10.570;2022-12-07T16:25:02;3.33;;;2.00;;
14778;SDS011;7481;53.750;10.570;2022-12-07T16:27:51;3.97;;;2.00;;
14778;SDS011;7481;53.750;10.570;2022-12-07T16:30:39;2.50;;;2.03;;
14778;SDS011;7481;53.750;10.570;2022-12-07T16:33:25;3.03;;;2.00;;
14778;SDS011;7481;53.750;10.570;2022-12-07T16:36:13;4.77;;;2.13;;
14778;SDS011;7481;53.750;10.570;2022-12-07T16:39:22;2.80;;;2.00;;
14778;SDS011;7481;53.750;10.570;2022-12-07T16:42:09;3.77;;;1.97;;
14778;SDS011;7481;53.750;10.570;2022-12-07T16:44:56;4.73;;;2.53;;
14778;SDS011;7481;53.750;10.570;2022-12-07T16:47:43;4.70;;;2.80;;
14778;SDS011;7481;53.750;10.570;2022-12-07T16:50:30;7.50;;;3.47;;
14778;SDS011;7481;53.750;10.570;2022-12-07T16:53:18;9.33;;;3.93;;
14778;SDS011;7481;53.750;10.570;2022-12-07T16:56:12;10.00;;;4.17;;
14778;SDS011;7481;53.750;10.570;2022-12-07T16:59:01;11.50;;;4.67;;
14778;SDS011;7481;53.750;10.570;2022-12-07T17:01:48;14.80;;;4.97;;
14778;SDS011;7481;53.750;10.570;2022-12-07T17:04:35;12.43;;;5.50;;
14778;SDS011;7481;53.750;10.570;2022-12-07T17:07:23;23.23;;;7.73;;
14778;SDS011;7481;53.750;10.570;2022-12-07T17:10:10;24.73;;;9.60;;
14778;SDS011;7481;53.750;10.570;2022-12-07T17:12:57;31.10;;;9.63;;
14778;SDS011;7481;53.750;10.570;2022-12-07T17:15:51;25.53;;;8.37;;
14778;SDS011;7481;53.750;10.570;2022-12-07T17:18:41;16.00;;;4.50;;
14778;SDS011;7481;53.750;10.570;2022-12-07T17:21:28;9.77;;;3.90;;
14778;SDS011;7481;53.750;10.570;2022-12-07T17:24:15;6.80;;;2.87;;
14778;SDS011;7481;53.750;10.570;2022-12-07T17:27:03;3.57;;;1.80;;
14778;SDS011;7481;53.750;10.570;2022-12-07T17:29:50;3.93;;;1.57;;
14778;SDS011;7481;53.750;10.570;2022-12-07T17:32:37;5.83;;;1.70;;
14778;SDS011;7481;53.750;10.570;2022-12-07T17:35:23;4.07;;;2.00;;
14778;SDS011;7481;53.750;10.570;2022-12-07T17:38:10;4.47;;;2.00;;
14778;SDS011;7481;53.750;10.570;2022-12-07T17:40:57;5.70;;;2.87;;
14778;SDS011;7481;53.750;10.570;2022-12-07T17:43:44;7.23;;;3.40;;
14778;SDS011;7481;53.750;10.570;2022-12-07T17:46:31;12.80;;;4.67;;
14778;SDS011;7481;53.750;10.570;2022-12-07T17:49:18;9.93;;;4.40;;
14778;SDS011;7481;53.750;10.570;2022-12-07T17:52:06;7.57;;;4.20;;
14778;SDS011;7481;53.750;10.570;2022-12-07T17:55:11;5.33;;;2.57;;
14778;SDS011;7481;53.750;10.570;2022-12-07T17:57:58;6.43;;;2.30;;
14778;SDS011;7481;53.750;10.570;2022-12-07T18:00:45;3.97;;;1.70;;
14778;SDS011;7481;53.750;10.570;2022-12-07T18:03:32;3.57;;;1.90;;
14778;SDS011;7481;53.750;10.570;2022-12-07T18:06:20;3.17;;;1.80;;
14778;SDS011;7481;53.750;10.570;2022-12-07T18:09:07;3.73;;;1.80;;
14778;SDS011;7481;53.750;10.570;2022-12-07T18:11:54;2.00;;;1.50;;
14778;SDS011;7481;53.750;10.570;2022-12-07T18:14:41;4.10;;;1.70;;
14778;SDS011;7481;53.750;10.570;2022-12-07T18:17:28;3.17;;;1.83;;